San Acacia, NM (87831)

12:56 AM MDT on August 26, 2016 (GMT -0600)
Paisano Farms | | Change Station

Elev 4593 ft 34.08 °N, 106.88 °W | Updated 0 second ago

Scattered Clouds
Scattered Clouds
69.3 °F
Feels Like 69.3 °F
N
1.0
Wind Variable Wind from South
Gusts 2.0 mph

Today
High -- | Low -- °F
--% Chance of Precip.
Yesterday
High -- | Low -- °F
Precip. -- in
Pressure 30.15 in
Visibility 10.0 miles
Clouds Scattered Clouds 11000 ft
Dew Point 49 °F
Humidity 49%
Rainfall 0.00 in
Snow Depth Not available.
6:37 AM 7:40 PM
Last Quarter, 37% visible
METAR KONM 260635Z AUTO 21006KT 10SM SCT110 22/07 A3015 RMK AO2 T02210070
Pressure 30.15 in
Visibility 10.0 miles
Clouds Scattered Clouds 11000 ft
Dew Point 49 °F
Humidity 49%
Rainfall 0.00 in
Snow Depth Not available.
6:37 AM 7:40 PM
Last Quarter, 37% visible
METAR KONM 260635Z AUTO 21006KT 10SM SCT110 22/07 A3015 RMK AO2 T02210070

10-Day Weather Forecast

Almanac

Astronomy

Aug. 26, 2016 Rise Set
Actual Time
Civil Twilight
Nautical Twilight
Astronomical Twilight
Moon
Length of Visible Light
Length of Day
Tomorrow will be .
, % of the Moon is Illuminated

Today's Extremes

State Highs State Lows

Community

WunderPhotos

Upload Photos

1,935,063 photos uploaded!

WunderBlog® & News

Nearby

Air Quality

  Air Quality AQ Index Pollutant
Not available.

Snow Depth

Station Depth Elevation

Earthquake Activity

City Distance Mag. Time & Date
Minimum magnitude displayed is 2.5.

Coastal Water Temperatures

Place Temperature

Stations

Nearby Weather Stations

Station Location Temp. Windchill Dew Point Humidity Wind Precip. Elev Updated Type
                   

Watches & Warnings

There are currently no watches in effect.